Time;durP1;ratioP1;P1;durP2;ratioP2;P2;SDS_P1;SDS_P2;PMS_P1;PMS_P2;Temp;Humidity;BMP_temperature;BMP_pressure;BME280_temperature;BME280_humidity;BME280_pressure;Samples;Min_cycle;Max_cycle;Signal;HPM_P1;HPM_P2
2022/07/27 00:02:16;;;;;;;;;;;24.80;49.50;;;;;;5020458;28;19929;-76
2022/07/27 00:04:42;;;;;;;;;;;24.70;49.80;;;;;;5021315;28;19933;-76
2022/07/27 00:07:09;;;;;;;;;;;24.70;49.80;;;;;;5019156;28;19929;-78
2022/07/27 00:09:35;;;;;;;;;;;24.70;49.80;;;;;;5021186;28;19929;-78
2022/07/27 00:12:02;;;;;;;;;;;24.70;49.90;;;;;;5019677;28;19936;-76
2022/07/27 00:14:29;;;;;;;;;;;24.70;50.00;;;;;;5018362;28;19936;-77
2022/07/27 00:16:56;;;;;;;;;;;24.70;50.10;;;;;;5017740;28;19941;-77
2022/07/27 00:19:23;;;;;;;;;;;24.60;50.00;;;;;;5020856;28;19932;-75
2022/07/27 00:21:50;;;;;;;;;;;24.60;50.10;;;;;;5020810;28;19972;-77
2022/07/27 00:24:17;;;;;;;;;;;24.50;50.20;;;;;;5018195;28;19972;-77
2022/07/27 00:26:43;;;;;;;;;;;24.50;50.30;;;;;;5019580;28;19933;-77
2022/07/27 00:29:10;;;;;;;;;;;24.50;50.40;;;;;;5021400;28;19952;-77
2022/07/27 00:31:36;;;;;;;;;;;24.50;50.50;;;;;;5019395;28;19929;-77
2022/07/27 00:34:04;;;;;;;;;;;24.50;50.50;;;;;;5021901;28;19944;-76
2022/07/27 00:36:31;;;;;;;;;;;24.40;50.50;;;;;;5017540;28;19940;-76
2022/07/27 00:38:57;;;;;;;;;;;24.40;50.60;;;;;;5021270;28;19929;-77
2022/07/27 00:41:24;;;;;;;;;;;24.40;50.80;;;;;;5017986;28;19933;-77
2022/07/27 00:43:51;;;;;;;;;;;24.40;50.80;;;;;;5021036;28;19929;-77
2022/07/27 00:46:18;;;;;;;;;;;24.30;50.90;;;;;;5019045;28;19929;-78
2022/07/27 00:48:44;;;;;;;;;;;24.30;50.90;;;;;;5014930;28;19933;-77
2022/07/27 00:51:12;;;;;;;;;;;24.30;50.80;;;;;;5019779;28;19929;-77
2022/07/27 00:53:39;;;;;;;;;;;24.30;50.90;;;;;;5016589;28;19933;-77
2022/07/27 00:56:06;;;;;;;;;;;24.30;51.00;;;;;;5019045;28;19936;-77
2022/07/27 00:58:33;;;;;;;;;;;24.20;51.00;;;;;;5020073;28;19929;-76
2022/07/27 01:01:00;;;;;;;;;;;24.20;51.20;;;;;;5019330;28;19933;-76
2022/07/27 01:03:26;;;;;;;;;;;24.20;51.30;;;;;;5020060;28;19929;-76
2022/07/27 01:05:54;;;;;;;;;;;24.20;51.40;;;;;;5025110;28;19933;-77
2022/07/27 01:08:22;;;;;;;;;;;24.20;51.50;;;;;;5016232;28;19941;-77
2022/07/27 01:10:48;;;;;;;;;;;24.20;51.50;;;;;;5016969;28;19940;-76
2022/07/27 01:13:15;;;;;;;;;;;24.10;51.50;;;;;;5021582;28;19940;-77
2022/07/27 01:15:42;;;;;;;;;;;24.10;51.50;;;;;;5021913;28;19933;-77
2022/07/27 01:18:11;;;;;;;;;;;24.10;51.60;;;;;;5015816;28;19933;-77
2022/07/27 01:20:39;;;;;;;;;;;24.10;51.60;;;;;;5019004;28;19935;-78
2022/07/27 01:23:06;;;;;;;;;;;24.00;51.80;;;;;;5015610;28;19929;-77
2022/07/27 01:25:33;;;;;;;;;;;24.00;51.90;;;;;;5019709;28;19933;-77
2022/07/27 01:28:00;;;;;;;;;;;24.00;51.90;;;;;;5018934;28;19936;-77
2022/07/27 01:30:27;;;;;;;;;;;24.00;51.90;;;;;;5022770;28;20836;-77
2022/07/27 01:32:59;;;;;;;;;;;24.00;51.80;;;;;;5020868;28;19944;-76
2022/07/27 01:35:25;;;;;;;;;;;24.00;51.90;;;;;;5025744;28;20706;-76
2022/07/27 01:37:52;;;;;;;;;;;24.00;52.00;;;;;;5030001;28;19936;-76
2022/07/27 01:40:20;;;;;;;;;;;23.90;52.10;;;;;;5032823;28;19929;-77
2022/07/27 01:42:46;;;;;;;;;;;23.90;52.10;;;;;;5022556;28;19940;-77
2022/07/27 01:45:13;;;;;;;;;;;23.90;52.10;;;;;;5021473;28;19929;-78
2022/07/27 01:47:40;;;;;;;;;;;23.80;52.20;;;;;;5022255;28;20424;-77
2022/07/27 01:50:08;;;;;;;;;;;23.90;52.30;;;;;;5017543;28;20401;-78
2022/07/27 01:52:35;;;;;;;;;;;23.90;52.30;;;;;;5020969;28;19929;-77
2022/07/27 01:55:01;;;;;;;;;;;23.80;52.30;;;;;;5024678;28;20012;-77
2022/07/27 01:57:29;;;;;;;;;;;23.80;52.40;;;;;;5021271;28;19937;-77
2022/07/27 01:59:56;;;;;;;;;;;23.80;52.40;;;;;;5020833;28;19935;-78
2022/07/27 02:02:22;;;;;;;;;;;23.80;52.40;;;;;;5022304;28;20424;-77
2022/07/27 02:04:49;;;;;;;;;;;23.80;52.60;;;;;;5021767;28;19933;-77
2022/07/27 02:07:15;;;;;;;;;;;23.70;52.70;;;;;;5025326;28;19929;-77
2022/07/27 02:09:44;;;;;;;;;;;23.70;52.70;;;;;;5022697;28;20620;-77
2022/07/27 02:14:56;;;;;;;;;;;23.70;52.70;;;;;;5022613;28;19936;-77
2022/07/27 02:17:23;;;;;;;;;;;23.70;52.70;;;;;;5022380;28;19932;-77
2022/07/27 02:19:49;;;;;;;;;;;23.60;52.90;;;;;;5027339;28;19930;-77
2022/07/27 02:22:16;;;;;;;;;;;23.70;53.00;;;;;;5024219;28;19929;-76
2022/07/27 02:24:43;;;;;;;;;;;23.60;52.90;;;;;;5020650;28;19929;-77
2022/07/27 02:27:09;;;;;;;;;;;23.60;52.80;;;;;;5023317;28;19929;-77
2022/07/27 02:29:36;;;;;;;;;;;23.60;52.90;;;;;;5022862;28;19948;-77
2022/07/27 02:32:04;;;;;;;;;;;23.60;53.00;;;;;;5021567;28;19939;-77
2022/07/27 02:34:31;;;;;;;;;;;23.50;52.80;;;;;;5021336;28;19936;-78
2022/07/27 02:36:57;;;;;;;;;;;23.60;53.00;;;;;;5021623;28;19936;-77
2022/07/27 02:39:24;;;;;;;;;;;23.50;53.10;;;;;;5023601;28;19949;-77
2022/07/27 02:41:51;;;;;;;;;;;23.50;53.20;;;;;;5021241;28;19940;-76
2022/07/27 02:44:17;;;;;;;;;;;23.50;53.20;;;;;;5022771;28;19936;-78
2022/07/27 02:46:44;;;;;;;;;;;23.40;53.20;;;;;;5020767;28;19933;-76
2022/07/27 02:49:12;;;;;;;;;;;23.40;53.30;;;;;;5021173;28;20552;-77
2022/07/27 02:51:38;;;;;;;;;;;23.40;53.30;;;;;;5023470;28;19929;-78
2022/07/27 02:54:05;;;;;;;;;;;23.40;53.40;;;;;;5023206;28;19933;-77
2022/07/27 02:56:31;;;;;;;;;;;23.40;53.50;;;;;;5019507;28;19929;-77
2022/07/27 02:58:58;;;;;;;;;;;23.40;53.60;;;;;;5023451;28;20607;-77
2022/07/27 03:01:24;;;;;;;;;;;23.30;53.50;;;;;;5016991;28;19933;-77
2022/07/27 03:03:51;;;;;;;;;;;23.30;53.50;;;;;;5019156;28;19944;-77
2022/07/27 03:06:19;;;;;;;;;;;23.30;53.50;;;;;;5022152;28;19936;-78
2022/07/27 03:08:46;;;;;;;;;;;23.30;53.60;;;;;;5017796;28;19941;-78
2022/07/27 03:11:14;;;;;;;;;;;23.30;53.60;;;;;;5017423;28;20424;-78
2022/07/27 03:13:40;;;;;;;;;;;23.30;53.60;;;;;;5021515;28;19929;-77
2022/07/27 03:16:07;;;;;;;;;;;23.30;53.70;;;;;;5019579;28;20034;-78
2022/07/27 03:18:34;;;;;;;;;;;23.20;54.30;;;;;;5018622;28;19929;-77
2022/07/27 03:21:00;;;;;;;;;;;23.20;53.80;;;;;;5022171;28;20375;-77
2022/07/27 03:23:28;;;;;;;;;;;23.20;53.80;;;;;;5018891;28;20445;-76
2022/07/27 03:25:55;;;;;;;;;;;23.20;53.90;;;;;;5022249;28;19928;-77
2022/07/27 03:28:22;;;;;;;;;;;23.10;53.80;;;;;;5022339;28;19936;-77
2022/07/27 03:30:48;;;;;;;;;;;23.20;54.00;;;;;;5020386;28;20312;-77
2022/07/27 03:33:15;;;;;;;;;;;23.20;54.00;;;;;;5020747;28;19936;-78
2022/07/27 03:35:42;;;;;;;;;;;23.10;54.00;;;;;;5018189;28;19937;-79
2022/07/27 03:38:08;;;;;;;;;;;23.10;54.00;;;;;;5024405;28;20396;-77
2022/07/27 03:40:36;;;;;;;;;;;23.10;54.10;;;;;;5022504;28;19929;-78
2022/07/27 03:43:03;;;;;;;;;;;23.10;54.10;;;;;;5023682;28;19929;-76
2022/07/27 03:45:29;;;;;;;;;;;23.00;54.00;;;;;;5020902;28;19933;-78
2022/07/27 03:47:56;;;;;;;;;;;23.00;54.10;;;;;;5017616;28;20920;-78
2022/07/27 03:50:23;;;;;;;;;;;23.00;54.00;;;;;;5021413;28;19929;-78
2022/07/27 03:52:49;;;;;;;;;;;23.10;54.10;;;;;;5021935;28;19929;-77
2022/07/27 03:55:16;;;;;;;;;;;23.00;54.20;;;;;;5018552;28;19937;-78
2022/07/27 03:57:44;;;;;;;;;;;23.00;54.20;;;;;;5021112;28;19941;-78
2022/07/27 04:00:12;;;;;;;;;;;23.00;54.20;;;;;;5021301;28;20026;-77
2022/07/27 04:02:39;;;;;;;;;;;23.00;54.20;;;;;;5031390;28;19932;-77
2022/07/27 04:05:06;;;;;;;;;;;22.90;54.20;;;;;;5021789;28;19929;-77
2022/07/27 04:07:33;;;;;;;;;;;22.90;54.30;;;;;;5020300;28;21809;-76
2022/07/27 04:09:59;;;;;;;;;;;22.90;54.30;;;;;;5027245;28;19929;-77
2022/07/27 04:12:26;;;;;;;;;;;22.90;54.50;;;;;;5019686;28;19929;-77
2022/07/27 04:14:54;;;;;;;;;;;22.90;54.60;;;;;;5020160;28;19933;-77
2022/07/27 04:17:20;;;;;;;;;;;22.90;54.50;;;;;;5026418;28;19924;-78
2022/07/27 04:19:47;;;;;;;;;;;22.90;54.50;;;;;;5020400;28;19939;-77
2022/07/27 04:22:13;;;;;;;;;;;22.80;55.10;;;;;;5017919;28;19929;-77
2022/07/27 04:24:40;;;;;;;;;;;22.90;54.70;;;;;;5022144;28;19929;-77
2022/07/27 04:27:06;;;;;;;;;;;22.80;54.60;;;;;;5015490;28;19935;-78
2022/07/27 04:29:33;;;;;;;;;;;22.80;54.70;;;;;;5020196;28;19929;-77
2022/07/27 04:32:01;;;;;;;;;;;22.80;54.80;;;;;;5023175;28;19935;-77
2022/07/27 04:34:27;;;;;;;;;;;22.80;54.70;;;;;;5022872;28;19936;-77
2022/07/27 04:36:54;;;;;;;;;;;22.80;54.80;;;;;;5015281;28;19936;-79
2022/07/27 04:39:21;;;;;;;;;;;22.80;54.60;;;;;;5021929;28;19936;-78
2022/07/27 04:41:47;;;;;;;;;;;22.80;54.80;;;;;;5022791;28;19944;-78
2022/07/27 04:44:14;;;;;;;;;;;22.70;54.60;;;;;;5021635;28;19932;-77
2022/07/27 04:46:40;;;;;;;;;;;22.70;54.30;;;;;;5021110;28;19933;-77
2022/07/27 04:49:08;;;;;;;;;;;22.70;54.60;;;;;;5023578;28;19925;-77
2022/07/27 04:51:35;;;;;;;;;;;22.70;54.70;;;;;;5020803;28;19929;-78
2022/07/27 04:54:01;;;;;;;;;;;22.70;54.70;;;;;;5018771;28;19936;-77
2022/07/27 04:56:28;;;;;;;;;;;22.70;54.90;;;;;;5022096;28;19933;-77
2022/07/27 04:58:55;;;;;;;;;;;22.70;55.00;;;;;;5013574;28;19936;-77
2022/07/27 05:01:24;;;;;;;;;;;22.70;55.00;;;;;;5017587;28;19936;-77
2022/07/27 05:03:50;;;;;;;;;;;22.70;55.00;;;;;;5015514;28;19975;-77
2022/07/27 05:06:18;;;;;;;;;;;22.70;55.00;;;;;;5020843;28;19929;-77
2022/07/27 05:08:45;;;;;;;;;;;22.70;55.00;;;;;;5016017;28;19941;-78
2022/07/27 05:11:12;;;;;;;;;;;22.70;55.10;;;;;;5017702;28;19929;-78
2022/07/27 05:13:39;;;;;;;;;;;22.70;55.20;;;;;;5017374;28;20305;-78
2022/07/27 05:16:07;;;;;;;;;;;22.60;55.10;;;;;;5020621;28;19933;-78
2022/07/27 05:18:34;;;;;;;;;;;22.60;55.20;;;;;;5020387;28;19983;-77
2022/07/27 05:21:01;;;;;;;;;;;22.60;55.10;;;;;;5016172;28;19940;-78
2022/07/27 05:23:29;;;;;;;;;;;22.60;55.20;;;;;;5018821;28;20678;-78
2022/07/27 05:25:56;;;;;;;;;;;22.60;55.10;;;;;;5019184;28;19933;-78
2022/07/27 05:28:22;;;;;;;;;;;22.60;55.10;;;;;;5017304;28;19928;-78
2022/07/27 05:30:49;;;;;;;;;;;22.60;55.10;;;;;;5018622;28;19929;-79
2022/07/27 05:33:16;;;;;;;;;;;22.60;55.20;;;;;;5015840;28;19940;-77
2022/07/27 05:35:42;;;;;;;;;;;22.50;55.10;;;;;;5020306;28;19929;-78
2022/07/27 05:38:09;;;;;;;;;;;22.60;55.20;;;;;;5021088;28;20336;-78
2022/07/27 05:40:37;;;;;;;;;;;22.50;55.10;;;;;;5021562;28;19933;-78
2022/07/27 05:43:04;;;;;;;;;;;22.60;55.30;;;;;;5019574;28;19937;-77
2022/07/27 05:45:31;;;;;;;;;;;22.60;55.30;;;;;;5018257;28;20011;-78
2022/07/27 05:47:58;;;;;;;;;;;22.60;55.40;;;;;;5018224;28;20309;-77
2022/07/27 05:50:25;;;;;;;;;;;22.50;55.30;;;;;;5016500;28;19989;-77
2022/07/27 05:52:52;;;;;;;;;;;22.60;55.40;;;;;;5015822;28;19929;-77
2022/07/27 05:55:18;;;;;;;;;;;22.50;55.40;;;;;;5013004;28;20010;-77
2022/07/27 05:57:46;;;;;;;;;;;22.50;55.40;;;;;;5017954;28;20317;-77
2022/07/27 06:00:13;;;;;;;;;;;22.50;55.30;;;;;;5017773;28;20722;-78
2022/07/27 06:02:40;;;;;;;;;;;22.50;55.30;;;;;;5018637;28;19929;-78
2022/07/27 06:05:07;;;;;;;;;;;22.50;55.40;;;;;;5017673;28;19937;-78
2022/07/27 06:10:18;;;;;;;;;;;22.50;55.40;;;;;;5024747;28;19931;-76
2022/07/27 06:12:45;;;;;;;;;;;22.50;55.70;;;;;;5026190;28;19937;-77
2022/07/27 06:15:14;;;;;;;;;;;22.40;56.10;;;;;;5027933;28;20493;-76
2022/07/27 06:17:40;;;;;;;;;;;22.30;56.30;;;;;;5019018;28;19953;-77
2022/07/27 06:20:08;;;;;;;;;;;22.30;56.90;;;;;;5024011;28;19929;-78
2022/07/27 06:22:43;;;;;;;;;;;22.30;56.80;;;;;;5019297;28;19937;-76
2022/07/27 06:25:11;;;;;;;;;;;22.30;56.70;;;;;;5026196;28;20501;-78
2022/07/27 06:27:37;;;;;;;;;;;22.30;56.60;;;;;;5020880;28;19929;-77
2022/07/27 06:30:04;;;;;;;;;;;22.30;56.70;;;;;;5025879;28;19929;-78
2022/07/27 06:32:32;;;;;;;;;;;22.30;56.40;;;;;;5019816;28;19936;-77
2022/07/27 06:34:59;;;;;;;;;;;22.30;56.60;;;;;;5024914;28;19936;-77
2022/07/27 06:37:28;;;;;;;;;;;22.30;56.60;;;;;;5024540;28;20527;-77
2022/07/27 06:39:55;;;;;;;;;;;22.40;56.50;;;;;;5020527;28;19929;-77
2022/07/27 06:42:22;;;;;;;;;;;22.30;56.50;;;;;;5022570;28;19944;-77
2022/07/27 06:44:48;;;;;;;;;;;22.30;56.40;;;;;;5026102;28;19936;-77
2022/07/27 06:47:15;;;;;;;;;;;22.30;56.20;;;;;;5020220;28;19933;-77
2022/07/27 06:49:43;;;;;;;;;;;22.40;56.30;;;;;;5024070;28;20432;-76
2022/07/27 06:52:09;;;;;;;;;;;22.40;56.30;;;;;;5024977;28;19933;-78
2022/07/27 06:54:36;;;;;;;;;;;22.40;56.40;;;;;;5023659;28;19940;-77
2022/07/27 06:57:02;;;;;;;;;;;22.40;56.30;;;;;;5020745;28;19929;-76
2022/07/27 06:59:30;;;;;;;;;;;22.40;56.00;;;;;;5034379;28;19939;-77
2022/07/27 07:01:57;;;;;;;;;;;22.40;55.80;;;;;;5031832;28;20053;-77
2022/07/27 07:04:23;;;;;;;;;;;22.40;55.90;;;;;;5030345;28;19936;-77
2022/07/27 07:06:52;;;;;;;;;;;22.40;56.00;;;;;;5019326;28;19936;-77
2022/07/27 07:09:18;;;;;;;;;;;22.40;56.00;;;;;;5022897;28;19929;-76
2022/07/27 07:11:45;;;;;;;;;;;22.40;55.90;;;;;;5025444;28;19933;-78
2022/07/27 07:14:11;;;;;;;;;;;22.40;55.80;;;;;;5019114;28;19940;-77
2022/07/27 07:16:38;;;;;;;;;;;22.50;56.00;;;;;;5013845;28;19936;-78
2022/07/27 07:19:05;;;;;;;;;;;22.50;56.00;;;;;;5018692;28;19935;-77
2022/07/27 07:21:31;;;;;;;;;;;22.50;56.00;;;;;;5019307;28;20008;-78
2022/07/27 07:23:59;;;;;;;;;;;22.50;55.90;;;;;;5017730;28;19933;-76
2022/07/27 07:26:26;;;;;;;;;;;22.50;55.70;;;;;;5010482;28;19929;-76
2022/07/27 07:28:52;;;;;;;;;;;22.50;55.70;;;;;;5015209;28;19937;-77
2022/07/27 07:31:19;;;;;;;;;;;22.50;55.70;;;;;;5013496;28;19933;-77
2022/07/27 07:33:46;;;;;;;;;;;22.50;55.70;;;;;;5020723;28;19940;-76
2022/07/27 07:36:13;;;;;;;;;;;22.50;55.60;;;;;;5021553;28;19933;-75
2022/07/27 07:38:39;;;;;;;;;;;22.60;55.50;;;;;;5015226;28;19929;-75
2022/07/27 07:41:07;;;;;;;;;;;22.70;55.70;;;;;;5013720;28;19940;-77
2022/07/27 07:43:37;;;;;;;;;;;22.90;55.20;;;;;;5013082;28;20447;-77
2022/07/27 07:46:03;;;;;;;;;;;22.90;55.30;;;;;;5012344;28;20345;-76
2022/07/27 07:48:30;;;;;;;;;;;22.90;55.30;;;;;;5011970;28;19925;-76
2022/07/27 07:50:57;;;;;;;;;;;23.00;55.20;;;;;;5015728;28;20558;-77
2022/07/27 07:53:24;;;;;;;;;;;23.00;55.00;;;;;;5017128;28;19940;-78
2022/07/27 07:55:51;;;;;;;;;;;23.00;54.80;;;;;;5021074;28;20024;-77
2022/07/27 07:58:19;;;;;;;;;;;23.00;54.60;;;;;;5019398;28;19936;-77
2022/07/27 08:00:46;;;;;;;;;;;23.20;54.70;;;;;;5021089;28;20587;-77
2022/07/27 08:03:12;;;;;;;;;;;23.20;54.60;;;;;;5017959;28;21626;-77
2022/07/27 08:05:39;;;;;;;;;;;23.30;54.40;;;;;;5020602;28;19933;-77
2022/07/27 08:08:05;;;;;;;;;;;23.30;54.30;;;;;;5017640;28;19929;-77
2022/07/27 08:10:32;;;;;;;;;;;23.30;54.20;;;;;;5016597;28;19933;-77
2022/07/27 08:12:59;;;;;;;;;;;23.40;54.10;;;;;;5014306;28;20447;-75
2022/07/27 08:15:27;;;;;;;;;;;23.40;53.90;;;;;;5015674;28;20756;-77
2022/07/27 08:17:54;;;;;;;;;;;23.50;53.90;;;;;;5017653;28;19933;-77
2022/07/27 08:20:22;;;;;;;;;;;23.50;53.80;;;;;;5021345;28;19936;-77
2022/07/27 08:22:49;;;;;;;;;;;23.50;53.60;;;;;;5019296;28;19929;-76
2022/07/27 08:25:15;;;;;;;;;;;23.60;53.60;;;;;;5017527;28;19929;-76
2022/07/27 08:27:42;;;;;;;;;;;23.60;53.60;;;;;;5018176;28;19940;-77
2022/07/27 08:30:10;;;;;;;;;;;23.60;54.10;;;;;;5017250;28;19936;-76
2022/07/27 08:32:50;;;;;;;;;;;23.70;53.50;;;;;;5016476;28;20669;-76
2022/07/27 08:35:17;;;;;;;;;;;23.70;53.40;;;;;;5019642;28;19933;-76
2022/07/27 08:37:44;;;;;;;;;;;23.70;53.30;;;;;;5018703;28;20055;-76
2022/07/27 08:40:11;;;;;;;;;;;23.70;53.30;;;;;;5017904;28;19929;-77
2022/07/27 08:42:40;;;;;;;;;;;23.70;53.10;;;;;;5020089;28;19972;-77
2022/07/27 08:45:07;;;;;;;;;;;23.80;53.10;;;;;;5019220;28;20544;-76
2022/07/27 08:47:35;;;;;;;;;;;23.80;53.20;;;;;;5017088;28;19935;-76
2022/07/27 08:50:03;;;;;;;;;;;23.80;53.10;;;;;;5020647;28;19925;-76
2022/07/27 08:52:30;;;;;;;;;;;23.80;52.90;;;;;;5018943;28;20400;-76
2022/07/27 08:54:56;;;;;;;;;;;23.90;52.90;;;;;;5019570;28;19929;-76
2022/07/27 08:57:23;;;;;;;;;;;23.90;52.80;;;;;;5019034;28;19935;-77
2022/07/27 08:59:49;;;;;;;;;;;24.00;52.60;;;;;;5018858;28;20289;-76
2022/07/27 09:02:16;;;;;;;;;;;24.00;52.60;;;;;;5017454;28;19929;-74
2022/07/27 09:04:42;;;;;;;;;;;24.00;52.50;;;;;;5020499;28;20414;-75
2022/07/27 09:07:26;;;;;;;;;;;24.00;52.40;;;;;;5020082;28;19936;-76
2022/07/27 09:09:53;;;;;;;;;;;24.10;52.40;;;;;;5018753;28;19929;-76
2022/07/27 09:12:26;;;;;;;;;;;24.10;52.40;;;;;;5021359;28;19952;-76
2022/07/27 09:15:03;;;;;;;;;;;24.20;52.30;;;;;;5018390;28;20423;-76
2022/07/27 09:17:29;;;;;;;;;;;24.20;52.20;;;;;;5015519;28;20031;-77
2022/07/27 09:19:57;;;;;;;;;;;24.20;52.20;;;;;;5018649;28;19925;-75
2022/07/27 09:22:39;;;;;;;;;;;24.20;52.00;;;;;;5019543;28;19929;-75
2022/07/27 09:25:06;;;;;;;;;;;24.30;52.00;;;;;;5022623;28;19929;-76
2022/07/27 09:27:33;;;;;;;;;;;24.30;51.90;;;;;;5019744;28;19929;-77
2022/07/27 09:30:01;;;;;;;;;;;24.30;51.80;;;;;;5020549;28;19928;-78
2022/07/27 09:32:27;;;;;;;;;;;24.30;51.70;;;;;;5018682;28;19999;-76
2022/07/27 09:34:54;;;;;;;;;;;24.40;51.70;;;;;;5017307;28;19940;-74
2022/07/27 09:37:23;;;;;;;;;;;24.40;51.70;;;;;;5019693;28;20446;-76
2022/07/27 09:39:52;;;;;;;;;;;24.50;51.70;;;;;;5020371;28;19933;-76
2022/07/27 09:42:21;;;;;;;;;;;24.50;51.50;;;;;;5020117;28;19929;-75
2022/07/27 09:44:47;;;;;;;;;;;24.50;51.40;;;;;;5018978;28;19929;-76
2022/07/27 09:47:21;;;;;;;;;;;24.60;51.30;;;;;;5016469;28;19933;-76
2022/07/27 09:49:48;;;;;;;;;;;24.60;51.10;;;;;;5021456;28;19925;-77
2022/07/27 09:52:22;;;;;;;;;;;24.60;50.90;;;;;;5024678;28;19936;-78
2022/07/27 09:54:49;;;;;;;;;;;24.70;51.00;;;;;;5021955;28;20372;-76
2022/07/27 09:57:18;;;;;;;;;;;24.70;51.00;;;;;;5020743;28;19940;-76
2022/07/27 09:59:44;;;;;;;;;;;24.70;50.90;;;;;;5022768;28;20443;-76
2022/07/27 10:02:12;;;;;;;;;;;24.80;50.90;;;;;;5018596;28;19940;-76
2022/07/27 10:04:39;;;;;;;;;;;24.90;50.70;;;;;;5021959;28;20036;-77
2022/07/27 10:07:06;;;;;;;;;;;24.90;50.60;;;;;;5021829;28;19933;-77
2022/07/27 10:09:33;;;;;;;;;;;24.90;50.40;;;;;;5023400;28;19940;-76
2022/07/27 10:12:00;;;;;;;;;;;25.00;50.30;;;;;;5018873;28;19929;-76
2022/07/27 10:14:28;;;;;;;;;;;25.10;50.30;;;;;;5021196;28;19933;-76
2022/07/27 10:16:55;;;;;;;;;;;25.10;50.20;;;;;;5019249;28;19933;-76
2022/07/27 10:19:23;;;;;;;;;;;25.20;50.00;;;;;;5022048;28;20503;-76
2022/07/27 10:21:50;;;;;;;;;;;25.20;49.60;;;;;;5020026;28;19963;-76
2022/07/27 10:24:24;;;;;;;;;;;25.30;49.40;;;;;;5022634;28;20775;-76
2022/07/27 10:26:51;;;;;;;;;;;25.30;49.30;;;;;;5021923;28;19936;-76
2022/07/27 10:29:19;;;;;;;;;;;25.40;49.50;;;;;;5021309;28;19936;-77
2022/07/27 10:31:57;;;;;;;;;;;25.40;49.50;;;;;;5021430;28;19933;-76
2022/07/27 10:34:32;;;;;;;;;;;25.50;49.30;;;;;;5021540;28;19969;-76
2022/07/27 10:37:07;;;;;;;;;;;25.50;49.20;;;;;;5021195;28;19933;-76
2022/07/27 10:39:35;;;;;;;;;;;25.50;49.20;;;;;;5020385;28;19925;-77
2022/07/27 10:42:21;;;;;;;;;;;25.60;49.30;;;;;;5022659;28;19928;-76
2022/07/27 10:44:52;;;;;;;;;;;25.60;49.30;;;;;;5024007;28;20308;-77
2022/07/27 10:47:29;;;;;;;;;;;25.70;49.40;;;;;;5017059;28;19940;-77
2022/07/27 10:50:10;;;;;;;;;;;25.70;49.30;;;;;;5021872;28;19944;-77
2022/07/27 10:52:40;;;;;;;;;;;25.70;49.10;;;;;;5018973;28;19929;-78
2022/07/27 10:55:07;;;;;;;;;;;25.80;48.90;;;;;;5017426;28;19929;-79
2022/07/27 10:57:35;;;;;;;;;;;25.80;48.90;;;;;;5020554;28;19925;-78
2022/07/27 11:00:07;;;;;;;;;;;25.80;48.60;;;;;;5017082;28;19929;-77
2022/07/27 11:02:38;;;;;;;;;;;25.90;47.80;;;;;;5016027;28;19929;-78
2022/07/27 11:05:05;;;;;;;;;;;26.00;47.90;;;;;;5020391;28;20815;-76
2022/07/27 11:07:32;;;;;;;;;;;26.00;48.00;;;;;;5017584;28;20803;-76
2022/07/27 11:10:00;;;;;;;;;;;26.10;48.20;;;;;;5015160;28;19929;-75
2022/07/27 11:12:27;;;;;;;;;;;26.10;48.20;;;;;;5019362;28;19929;-76
2022/07/27 11:14:55;;;;;;;;;;;26.20;48.60;;;;;;5018383;28;19929;-75
2022/07/27 11:17:22;;;;;;;;;;;26.30;48.40;;;;;;5017090;28;19940;-75
2022/07/27 11:19:53;;;;;;;;;;;26.20;48.30;;;;;;5018637;28;20351;-70
2022/07/27 11:22:28;;;;;;;;;;;26.30;48.10;;;;;;5023701;28;19937;-70
2022/07/27 11:24:55;;;;;;;;;;;26.30;47.80;;;;;;5022478;28;19929;-73
2022/07/27 11:27:22;;;;;;;;;;;26.50;47.50;;;;;;5019776;28;20592;-71
2022/07/27 11:29:48;;;;;;;;;;;26.50;47.70;;;;;;5017976;28;19934;-69
2022/07/27 11:32:17;;;;;;;;;;;26.50;47.70;;;;;;5016382;28;19936;-72
2022/07/27 11:34:43;;;;;;;;;;;26.60;47.40;;;;;;5021890;28;19929;-74
2022/07/27 11:37:17;;;;;;;;;;;26.60;47.50;;;;;;5023790;28;19940;-70
2022/07/27 11:39:44;;;;;;;;;;;26.70;46.70;;;;;;5023189;28;19929;-70
2022/07/27 11:42:11;;;;;;;;;;;26.80;47.20;;;;;;5021411;28;20506;-76
2022/07/27 11:44:38;;;;;;;;;;;26.80;46.60;;;;;;5021282;28;20036;-76
2022/07/27 11:47:05;;;;;;;;;;;26.90;47.30;;;;;;5012135;28;19937;-70
2022/07/27 11:49:32;;;;;;;;;;;26.90;47.40;;;;;;5022391;28;19925;-69
2022/07/27 11:52:00;;;;;;;;;;;27.00;47.90;;;;;;5021402;28;19944;-71
2022/07/27 11:54:28;;;;;;;;;;;27.00;47.50;;;;;;5023742;28;19936;-72
2022/07/27 11:56:55;;;;;;;;;;;27.10;47.20;;;;;;5020380;28;19936;-71
2022/07/27 11:59:23;;;;;;;;;;;27.10;47.40;;;;;;5023197;28;19929;-70
2022/07/27 12:01:50;;;;;;;;;;;27.10;47.10;;;;;;5019326;28;20382;-70
2022/07/27 12:04:19;;;;;;;;;;;27.10;47.30;;;;;;5016925;28;19929;-73
2022/07/27 12:06:47;;;;;;;;;;;27.10;47.10;;;;;;5021271;28;19933;-70
2022/07/27 12:09:14;;;;;;;;;;;27.10;47.40;;;;;;5028487;28;19944;-72
2022/07/27 12:12:01;;;;;;;;;;;27.10;47.50;;;;;;5021201;28;20412;-71
2022/07/27 12:14:32;;;;;;;;;;;27.20;47.40;;;;;;5015238;28;19927;-70
2022/07/27 12:17:11;;;;;;;;;;;27.20;47.30;;;;;;5022724;28;19943;-70
2022/07/27 12:19:38;;;;;;;;;;;27.20;47.40;;;;;;5020128;28;19936;-74
2022/07/27 12:22:05;;;;;;;;;;;27.30;47.10;;;;;;5021145;28;19929;-71
2022/07/27 12:24:33;;;;;;;;;;;27.30;46.30;;;;;;5018330;28;19941;-75
2022/07/27 12:27:03;;;;;;;;;;;27.40;47.20;;;;;;5012037;28;20060;-72
2022/07/27 12:29:31;;;;;;;;;;;27.40;47.50;;;;;;5018340;28;19936;-76
2022/07/27 12:32:01;;;;;;;;;;;27.40;46.90;;;;;;5015485;28;19936;-77
2022/07/27 12:34:31;;;;;;;;;;;27.40;45.30;;;;;;5020076;28;19936;-76
2022/07/27 12:36:58;;;;;;;;;;;27.50;46.00;;;;;;5022048;28;19929;-74
2022/07/27 12:39:25;;;;;;;;;;;27.50;46.80;;;;;;5017894;28;20421;-76
2022/07/27 12:42:01;;;;;;;;;;;27.50;46.80;;;;;;5022158;28;20397;-76
2022/07/27 12:44:33;;;;;;;;;;;27.50;47.00;;;;;;5020335;28;19933;-76
2022/07/27 12:47:00;;;;;;;;;;;27.50;46.50;;;;;;5014181;28;19969;-77
2022/07/27 12:49:33;;;;;;;;;;;27.50;45.90;;;;;;5014472;28;20300;-75
2022/07/27 12:52:04;;;;;;;;;;;27.50;47.20;;;;;;5018833;28;19968;-76
2022/07/27 12:54:31;;;;;;;;;;;27.50;46.30;;;;;;5019703;28;20015;-77
2022/07/27 12:56:57;;;;;;;;;;;27.50;46.50;;;;;;5015941;28;19925;-76
2022/07/27 12:59:24;;;;;;;;;;;27.50;46.60;;;;;;5018385;28;20395;-77
2022/07/27 13:01:54;;;;;;;;;;;27.50;46.60;;;;;;5017587;28;19933;-77
2022/07/27 13:04:21;;;;;;;;;;;27.50;46.70;;;;;;5020982;28;19971;-78
2022/07/27 13:06:47;;;;;;;;;;;27.50;46.90;;;;;;5017090;28;19991;-76
2022/07/27 13:09:14;;;;;;;;;;;27.50;46.90;;;;;;5019356;28;19936;-77
2022/07/27 13:11:40;;;;;;;;;;;27.50;46.60;;;;;;5015637;28;19936;-75
2022/07/27 13:14:07;;;;;;;;;;;27.50;46.70;;;;;;5027204;28;19930;-77
2022/07/27 13:16:34;;;;;;;;;;;27.50;46.90;;;;;;5019522;28;20290;-77
2022/07/27 13:19:01;;;;;;;;;;;27.60;47.10;;;;;;5019304;28;20679;-77
2022/07/27 13:21:28;;;;;;;;;;;27.60;46.90;;;;;;5018985;28;20658;-77
2022/07/27 13:23:54;;;;;;;;;;;27.60;46.30;;;;;;5012910;28;20460;-77
2022/07/27 13:26:22;;;;;;;;;;;27.70;47.10;;;;;;5016132;28;20393;-77
2022/07/27 13:28:49;;;;;;;;;;;27.70;46.40;;;;;;5020841;28;20371;-77
2022/07/27 13:31:15;;;;;;;;;;;27.70;46.30;;;;;;5019251;28;19933;-77
2022/07/27 13:33:42;;;;;;;;;;;27.80;45.80;;;;;;5017785;28;19941;-78
2022/07/27 13:36:10;;;;;;;;;;;27.80;46.20;;;;;;5019253;28;19933;-77
2022/07/27 13:38:36;;;;;;;;;;;27.80;45.60;;;;;;5020537;28;19933;-77
2022/07/27 13:41:03;;;;;;;;;;;27.80;45.70;;;;;;5021682;28;19933;-77
2022/07/27 13:43:30;;;;;;;;;;;27.90;45.80;;;;;;5017889;28;19925;-77
2022/07/27 13:45:56;;;;;;;;;;;27.90;45.90;;;;;;5017318;28;19948;-78
2022/07/27 13:48:23;;;;;;;;;;;28.00;46.40;;;;;;5018364;28;19933;-77
2022/07/27 13:50:49;;;;;;;;;;;28.00;45.90;;;;;;5018722;28;20278;-77
2022/07/27 13:53:17;;;;;;;;;;;28.00;45.70;;;;;;5018258;28;19929;-78
2022/07/27 13:55:44;;;;;;;;;;;28.00;45.90;;;;;;5017958;28;19929;-77
2022/07/27 13:58:11;;;;;;;;;;;28.00;45.70;;;;;;5018823;28;19929;-77
2022/07/27 14:00:38;;;;;;;;;;;28.00;45.90;;;;;;5019070;28;19964;-77
2022/07/27 14:03:04;;;;;;;;;;;28.00;45.40;;;;;;5020595;28;19929;-77
2022/07/27 14:05:31;;;;;;;;;;;28.00;45.50;;;;;;5017827;28;19929;-77
2022/07/27 14:07:58;;;;;;;;;;;28.00;45.10;;;;;;5019075;28;20786;-77
2022/07/27 14:10:34;;;;;;;;;;;28.00;45.40;;;;;;5017453;28;20385;-77
2022/07/27 14:13:01;;;;;;;;;;;28.00;44.90;;;;;;5019403;28;19939;-77
2022/07/27 14:15:28;;;;;;;;;;;28.00;45.60;;;;;;5021104;28;19930;-77
2022/07/27 14:17:55;;;;;;;;;;;28.00;44.80;;;;;;5016744;28;19933;-75
2022/07/27 14:20:21;;;;;;;;;;;28.10;44.80;;;;;;5016063;28;19929;-77
2022/07/27 14:22:48;;;;;;;;;;;28.00;45.50;;;;;;5017136;28;19932;-76
2022/07/27 14:25:15;;;;;;;;;;;28.00;45.10;;;;;;5014085;28;19929;-77